sensor_id;sensor_type;location;lat;lon;timestamp;temperature;humidity
9881;DHT22;4979;51.014;6.678;2022-07-23T00:00:15;18.80;99.90
9881;DHT22;4979;51.014;6.678;2022-07-23T00:02:41;18.80;99.90
9881;DHT22;4979;51.014;6.678;2022-07-23T00:05:07;18.80;99.90
9881;DHT22;4979;51.014;6.678;2022-07-23T00:07:33;18.90;99.90
9881;DHT22;4979;51.014;6.678;2022-07-23T00:09:59;18.90;99.90
9881;DHT22;4979;51.014;6.678;2022-07-23T00:12:25;18.90;99.90
9881;DHT22;4979;51.014;6.678;2022-07-23T00:14:50;19.00;99.90
9881;DHT22;4979;51.014;6.678;2022-07-23T00:17:16;19.00;99.90
9881;DHT22;4979;51.014;6.678;2022-07-23T00:19:42;18.90;99.90
9881;DHT22;4979;51.014;6.678;2022-07-23T00:22:08;18.90;99.90
9881;DHT22;4979;51.014;6.678;2022-07-23T00:24:33;19.00;99.90
9881;DHT22;4979;51.014;6.678;2022-07-23T00:26:59;19.00;99.90
9881;DHT22;4979;51.014;6.678;2022-07-23T00:29:24;19.00;99.90
9881;DHT22;4979;51.014;6.678;2022-07-23T00:31:50;18.90;99.90
9881;DHT22;4979;51.014;6.678;2022-07-23T00:34:15;18.90;99.90
9881;DHT22;4979;51.014;6.678;2022-07-23T00:36:41;19.00;99.90
9881;DHT22;4979;51.014;6.678;2022-07-23T00:39:07;18.90;99.90
9881;DHT22;4979;51.014;6.678;2022-07-23T00:41:32;18.90;99.90
9881;DHT22;4979;51.014;6.678;2022-07-23T00:44:17;18.90;99.90
9881;DHT22;4979;51.014;6.678;2022-07-23T00:46:46;18.80;99.90
9881;DHT22;4979;51.014;6.678;2022-07-23T00:49:12;18.90;99.90
9881;DHT22;4979;51.014;6.678;2022-07-23T00:51:37;18.90;99.90
9881;DHT22;4979;51.014;6.678;2022-07-23T00:54:03;19.00;99.90
9881;DHT22;4979;51.014;6.678;2022-07-23T00:56:29;18.90;99.90
9881;DHT22;4979;51.014;6.678;2022-07-23T00:58:56;18.80;99.90
9881;DHT22;4979;51.014;6.678;2022-07-23T01:01:22;18.80;99.90
9881;DHT22;4979;51.014;6.678;2022-07-23T01:03:47;18.90;99.90
9881;DHT22;4979;51.014;6.678;2022-07-23T01:06:14;18.80;99.90
9881;DHT22;4979;51.014;6.678;2022-07-23T01:08:39;18.90;99.90
9881;DHT22;4979;51.014;6.678;2022-07-23T01:11:05;18.80;99.90
9881;DHT22;4979;51.014;6.678;2022-07-23T01:13:31;18.80;99.90
9881;DHT22;4979;51.014;6.678;2022-07-23T01:15:56;18.80;99.90
9881;DHT22;4979;51.014;6.678;2022-07-23T01:18:22;18.90;99.90
9881;DHT22;4979;51.014;6.678;2022-07-23T01:20:47;18.80;99.90
9881;DHT22;4979;51.014;6.678;2022-07-23T01:23:13;18.90;99.90
9881;DHT22;4979;51.014;6.678;2022-07-23T01:25:47;18.80;99.90
9881;DHT22;4979;51.014;6.678;2022-07-23T01:28:13;18.80;99.90
9881;DHT22;4979;51.014;6.678;2022-07-23T01:30:39;18.70;99.90
9881;DHT22;4979;51.014;6.678;2022-07-23T01:33:05;18.60;99.90
9881;DHT22;4979;51.014;6.678;2022-07-23T01:35:31;18.60;99.90
9881;DHT22;4979;51.014;6.678;2022-07-23T01:37:56;18.60;99.90
9881;DHT22;4979;51.014;6.678;2022-07-23T01:40:22;18.50;99.90
9881;DHT22;4979;51.014;6.678;2022-07-23T01:42:48;18.50;99.90
9881;DHT22;4979;51.014;6.678;2022-07-23T01:45:13;18.40;99.90
9881;DHT22;4979;51.014;6.678;2022-07-23T01:47:39;18.40;99.90
9881;DHT22;4979;51.014;6.678;2022-07-23T01:50:05;18.40;99.90
9881;DHT22;4979;51.014;6.678;2022-07-23T01:52:30;18.30;99.90
9881;DHT22;4979;51.014;6.678;2022-07-23T01:54:56;18.20;99.90
9881;DHT22;4979;51.014;6.678;2022-07-23T01:57:22;18.30;99.90
9881;DHT22;4979;51.014;6.678;2022-07-23T01:59:47;18.20;99.90
9881;DHT22;4979;51.014;6.678;2022-07-23T02:02:13;18.10;99.90
9881;DHT22;4979;51.014;6.678;2022-07-23T02:04:38;18.10;99.90
9881;DHT22;4979;51.014;6.678;2022-07-23T02:07:05;18.20;99.90
9881;DHT22;4979;51.014;6.678;2022-07-23T02:09:31;18.20;99.90
9881;DHT22;4979;51.014;6.678;2022-07-23T02:11:57;18.10;99.90
9881;DHT22;4979;51.014;6.678;2022-07-23T02:14:23;18.10;99.90
9881;DHT22;4979;51.014;6.678;2022-07-23T02:16:49;18.10;99.90
9881;DHT22;4979;51.014;6.678;2022-07-23T02:19:14;18.00;99.90
9881;DHT22;4979;51.014;6.678;2022-07-23T02:21:40;17.80;99.90
9881;DHT22;4979;51.014;6.678;2022-07-23T02:24:06;18.00;99.90
9881;DHT22;4979;51.014;6.678;2022-07-23T02:26:32;18.00;99.90
9881;DHT22;4979;51.014;6.678;2022-07-23T02:29:00;17.90;99.90
9881;DHT22;4979;51.014;6.678;2022-07-23T02:31:26;17.90;99.90
9881;DHT22;4979;51.014;6.678;2022-07-23T02:33:51;17.70;99.90
9881;DHT22;4979;51.014;6.678;2022-07-23T02:36:17;17.70;99.90
9881;DHT22;4979;51.014;6.678;2022-07-23T02:38:42;17.70;99.90
9881;DHT22;4979;51.014;6.678;2022-07-23T02:41:08;17.60;99.90
9881;DHT22;4979;51.014;6.678;2022-07-23T02:43:34;17.60;99.90
9881;DHT22;4979;51.014;6.678;2022-07-23T02:45:59;17.60;99.90
9881;DHT22;4979;51.014;6.678;2022-07-23T02:48:26;17.60;99.90
9881;DHT22;4979;51.014;6.678;2022-07-23T02:50:51;17.50;99.90
9881;DHT22;4979;51.014;6.678;2022-07-23T02:53:18;17.60;99.90
9881;DHT22;4979;51.014;6.678;2022-07-23T02:55:43;17.50;99.90
9881;DHT22;4979;51.014;6.678;2022-07-23T02:58:09;17.50;99.90
9881;DHT22;4979;51.014;6.678;2022-07-23T03:00:34;17.40;99.90
9881;DHT22;4979;51.014;6.678;2022-07-23T03:03:00;17.30;99.90
9881;DHT22;4979;51.014;6.678;2022-07-23T03:05:25;17.20;99.90
9881;DHT22;4979;51.014;6.678;2022-07-23T03:07:51;17.20;99.90
9881;DHT22;4979;51.014;6.678;2022-07-23T03:10:16;17.20;99.90
9881;DHT22;4979;51.014;6.678;2022-07-23T03:12:42;17.20;99.90
9881;DHT22;4979;51.014;6.678;2022-07-23T03:15:08;17.20;99.90
9881;DHT22;4979;51.014;6.678;2022-07-23T03:17:34;17.30;99.90
9881;DHT22;4979;51.014;6.678;2022-07-23T03:19:59;17.20;99.90
9881;DHT22;4979;51.014;6.678;2022-07-23T03:22:25;17.30;99.90
9881;DHT22;4979;51.014;6.678;2022-07-23T03:24:51;17.20;99.90
9881;DHT22;4979;51.014;6.678;2022-07-23T03:27:23;17.20;99.90
9881;DHT22;4979;51.014;6.678;2022-07-23T03:29:51;17.20;99.90
9881;DHT22;4979;51.014;6.678;2022-07-23T03:32:17;17.20;99.90
9881;DHT22;4979;51.014;6.678;2022-07-23T03:34:42;17.20;99.90
9881;DHT22;4979;51.014;6.678;2022-07-23T03:37:08;17.20;99.90
9881;DHT22;4979;51.014;6.678;2022-07-23T03:39:33;17.20;99.90
9881;DHT22;4979;51.014;6.678;2022-07-23T03:42:00;17.20;99.90
9881;DHT22;4979;51.014;6.678;2022-07-23T03:44:25;17.30;99.90
9881;DHT22;4979;51.014;6.678;2022-07-23T03:46:51;17.30;99.90
9881;DHT22;4979;51.014;6.678;2022-07-23T03:49:17;17.30;99.90
9881;DHT22;4979;51.014;6.678;2022-07-23T03:51:43;17.20;99.90
9881;DHT22;4979;51.014;6.678;2022-07-23T03:54:08;17.10;99.90
9881;DHT22;4979;51.014;6.678;2022-07-23T03:56:34;16.90;99.90
9881;DHT22;4979;51.014;6.678;2022-07-23T03:58:59;17.00;99.90
9881;DHT22;4979;51.014;6.678;2022-07-23T04:01:25;17.00;99.90
9881;DHT22;4979;51.014;6.678;2022-07-23T04:03:51;17.00;99.90
9881;DHT22;4979;51.014;6.678;2022-07-23T04:06:16;17.10;99.90
9881;DHT22;4979;51.014;6.678;2022-07-23T04:08:42;17.10;99.90
9881;DHT22;4979;51.014;6.678;2022-07-23T04:11:07;16.30;99.90
9881;DHT22;4979;51.014;6.678;2022-07-23T04:13:33;17.10;99.90
9881;DHT22;4979;51.014;6.678;2022-07-23T04:15:58;17.20;99.90
9881;DHT22;4979;51.014;6.678;2022-07-23T04:18:24;17.20;99.90
9881;DHT22;4979;51.014;6.678;2022-07-23T04:20:53;17.20;99.90
9881;DHT22;4979;51.014;6.678;2022-07-23T04:23:19;17.20;99.90
9881;DHT22;4979;51.014;6.678;2022-07-23T04:25:44;17.30;99.90
9881;DHT22;4979;51.014;6.678;2022-07-23T04:28:10;17.30;99.90
9881;DHT22;4979;51.014;6.678;2022-07-23T04:30:36;17.10;99.90
9881;DHT22;4979;51.014;6.678;2022-07-23T04:33:01;17.20;99.90
9881;DHT22;4979;51.014;6.678;2022-07-23T04:35:30;17.20;99.90
9881;DHT22;4979;51.014;6.678;2022-07-23T04:37:56;17.20;99.90
9881;DHT22;4979;51.014;6.678;2022-07-23T04:40:22;17.20;99.90
9881;DHT22;4979;51.014;6.678;2022-07-23T04:42:47;17.20;99.90
9881;DHT22;4979;51.014;6.678;2022-07-23T04:45:13;17.20;99.90
9881;DHT22;4979;51.014;6.678;2022-07-23T04:47:38;17.30;99.90
9881;DHT22;4979;51.014;6.678;2022-07-23T04:50:04;17.40;99.90
9881;DHT22;4979;51.014;6.678;2022-07-23T04:52:30;17.50;99.90
9881;DHT22;4979;51.014;6.678;2022-07-23T04:54:55;17.70;99.90
9881;DHT22;4979;51.014;6.678;2022-07-23T04:57:21;17.80;99.90
9881;DHT22;4979;51.014;6.678;2022-07-23T04:59:46;17.80;99.90
9881;DHT22;4979;51.014;6.678;2022-07-23T05:02:12;17.90;99.90
9881;DHT22;4979;51.014;6.678;2022-07-23T05:04:38;17.80;99.90
9881;DHT22;4979;51.014;6.678;2022-07-23T05:07:04;17.90;99.90
9881;DHT22;4979;51.014;6.678;2022-07-23T05:09:29;17.80;99.90
9881;DHT22;4979;51.014;6.678;2022-07-23T05:11:55;17.90;99.90
9881;DHT22;4979;51.014;6.678;2022-07-23T05:14:20;18.00;99.90
9881;DHT22;4979;51.014;6.678;2022-07-23T05:16:46;18.00;99.90
9881;DHT22;4979;51.014;6.678;2022-07-23T05:19:11;18.10;99.90
9881;DHT22;4979;51.014;6.678;2022-07-23T05:21:37;18.20;99.90
9881;DHT22;4979;51.014;6.678;2022-07-23T05:24:03;18.20;99.90
9881;DHT22;4979;51.014;6.678;2022-07-23T05:26:29;18.20;99.90
9881;DHT22;4979;51.014;6.678;2022-07-23T05:28:55;18.20;99.90
9881;DHT22;4979;51.014;6.678;2022-07-23T05:31:20;18.30;99.90
9881;DHT22;4979;51.014;6.678;2022-07-23T05:33:46;18.30;99.90
9881;DHT22;4979;51.014;6.678;2022-07-23T05:36:11;18.30;99.90
9881;DHT22;4979;51.014;6.678;2022-07-23T05:38:37;18.00;99.90
9881;DHT22;4979;51.014;6.678;2022-07-23T05:41:02;18.40;99.90
9881;DHT22;4979;51.014;6.678;2022-07-23T05:43:28;18.40;99.90
9881;DHT22;4979;51.014;6.678;2022-07-23T05:45:54;18.70;99.90
9881;DHT22;4979;51.014;6.678;2022-07-23T05:48:20;18.80;99.90
9881;DHT22;4979;51.014;6.678;2022-07-23T05:50:46;18.90;99.90
9881;DHT22;4979;51.014;6.678;2022-07-23T05:53:12;19.10;99.90
9881;DHT22;4979;51.014;6.678;2022-07-23T05:55:38;19.10;99.90
9881;DHT22;4979;51.014;6.678;2022-07-23T05:58:04;19.10;99.90
9881;DHT22;4979;51.014;6.678;2022-07-23T06:00:30;19.30;99.90
9881;DHT22;4979;51.014;6.678;2022-07-23T06:02:55;19.40;99.90
9881;DHT22;4979;51.014;6.678;2022-07-23T06:05:21;19.40;99.90
9881;DHT22;4979;51.014;6.678;2022-07-23T06:07:46;19.60;99.90
9881;DHT22;4979;51.014;6.678;2022-07-23T06:10:12;19.70;99.90
9881;DHT22;4979;51.014;6.678;2022-07-23T06:12:38;19.60;99.90
9881;DHT22;4979;51.014;6.678;2022-07-23T06:15:04;19.70;99.90
9881;DHT22;4979;51.014;6.678;2022-07-23T06:17:29;19.60;99.90
9881;DHT22;4979;51.014;6.678;2022-07-23T06:19:55;19.70;99.90
9881;DHT22;4979;51.014;6.678;2022-07-23T06:22:21;19.90;99.90
9881;DHT22;4979;51.014;6.678;2022-07-23T06:24:48;20.00;99.90
9881;DHT22;4979;51.014;6.678;2022-07-23T06:27:14;20.00;99.90
9881;DHT22;4979;51.014;6.678;2022-07-23T06:29:39;20.00;99.90
9881;DHT22;4979;51.014;6.678;2022-07-23T06:32:06;20.60;99.90
9881;DHT22;4979;51.014;6.678;2022-07-23T06:34:32;20.20;99.90
9881;DHT22;4979;51.014;6.678;2022-07-23T06:36:58;20.30;99.90
9881;DHT22;4979;51.014;6.678;2022-07-23T06:39:24;20.30;99.90
9881;DHT22;4979;51.014;6.678;2022-07-23T06:41:49;20.30;99.90
9881;DHT22;4979;51.014;6.678;2022-07-23T06:44:15;20.50;99.90
9881;DHT22;4979;51.014;6.678;2022-07-23T06:46:41;20.50;99.90
9881;DHT22;4979;51.014;6.678;2022-07-23T06:49:06;20.50;99.90
9881;DHT22;4979;51.014;6.678;2022-07-23T06:51:32;20.60;99.90
9881;DHT22;4979;51.014;6.678;2022-07-23T06:53:58;20.70;99.90
9881;DHT22;4979;51.014;6.678;2022-07-23T06:56:24;20.80;99.90
9881;DHT22;4979;51.014;6.678;2022-07-23T06:58:49;20.90;99.90
9881;DHT22;4979;51.014;6.678;2022-07-23T07:01:15;20.90;99.90
9881;DHT22;4979;51.014;6.678;2022-07-23T07:03:41;21.00;99.90
9881;DHT22;4979;51.014;6.678;2022-07-23T07:06:06;21.20;99.90
9881;DHT22;4979;51.014;6.678;2022-07-23T07:08:32;21.10;99.90
9881;DHT22;4979;51.014;6.678;2022-07-23T07:10:57;21.20;99.90
9881;DHT22;4979;51.014;6.678;2022-07-23T07:13:23;21.30;99.90
9881;DHT22;4979;51.014;6.678;2022-07-23T07:15:49;21.50;99.90
9881;DHT22;4979;51.014;6.678;2022-07-23T07:18:14;21.30;99.90
9881;DHT22;4979;51.014;6.678;2022-07-23T07:20:40;21.10;99.90
9881;DHT22;4979;51.014;6.678;2022-07-23T07:23:05;21.10;99.90
9881;DHT22;4979;51.014;6.678;2022-07-23T07:25:31;21.10;99.90
9881;DHT22;4979;51.014;6.678;2022-07-23T07:27:56;21.10;99.90
9881;DHT22;4979;51.014;6.678;2022-07-23T07:30:22;21.00;99.90
9881;DHT22;4979;51.014;6.678;2022-07-23T07:32:48;20.90;99.90
9881;DHT22;4979;51.014;6.678;2022-07-23T07:35:13;21.10;99.90
9881;DHT22;4979;51.014;6.678;2022-07-23T07:37:39;21.20;99.90
9881;DHT22;4979;51.014;6.678;2022-07-23T07:40:05;21.50;99.90
9881;DHT22;4979;51.014;6.678;2022-07-23T07:42:31;21.70;99.90
9881;DHT22;4979;51.014;6.678;2022-07-23T07:44:57;22.00;99.90
9881;DHT22;4979;51.014;6.678;2022-07-23T07:47:23;22.10;99.90
9881;DHT22;4979;51.014;6.678;2022-07-23T07:49:49;22.00;99.90
9881;DHT22;4979;51.014;6.678;2022-07-23T07:52:14;22.00;99.90
9881;DHT22;4979;51.014;6.678;2022-07-23T07:54:40;21.60;99.90
9881;DHT22;4979;51.014;6.678;2022-07-23T07:57:06;21.50;99.90
9881;DHT22;4979;51.014;6.678;2022-07-23T07:59:31;21.80;99.90
9881;DHT22;4979;51.014;6.678;2022-07-23T08:01:57;21.70;99.90
9881;DHT22;4979;51.014;6.678;2022-07-23T08:04:22;21.80;99.90
9881;DHT22;4979;51.014;6.678;2022-07-23T08:06:48;22.10;99.90
9881;DHT22;4979;51.014;6.678;2022-07-23T08:09:13;22.00;99.90
9881;DHT22;4979;51.014;6.678;2022-07-23T08:11:39;22.10;99.90
9881;DHT22;4979;51.014;6.678;2022-07-23T08:14:05;22.20;99.90
9881;DHT22;4979;51.014;6.678;2022-07-23T08:16:30;22.20;99.90
9881;DHT22;4979;51.014;6.678;2022-07-23T08:18:56;22.30;99.90
9881;DHT22;4979;51.014;6.678;2022-07-23T08:21:22;22.50;99.90
9881;DHT22;4979;51.014;6.678;2022-07-23T08:23:47;22.40;99.90
9881;DHT22;4979;51.014;6.678;2022-07-23T08:26:13;22.60;99.90
9881;DHT22;4979;51.014;6.678;2022-07-23T08:28:39;22.90;99.90
9881;DHT22;4979;51.014;6.678;2022-07-23T08:31:04;23.00;99.90
9881;DHT22;4979;51.014;6.678;2022-07-23T08:33:31;22.80;99.90
9881;DHT22;4979;51.014;6.678;2022-07-23T08:35:56;22.70;99.90
9881;DHT22;4979;51.014;6.678;2022-07-23T08:38:22;22.80;99.90
9881;DHT22;4979;51.014;6.678;2022-07-23T08:40:50;23.00;99.90
9881;DHT22;4979;51.014;6.678;2022-07-23T08:43:19;23.00;99.90
9881;DHT22;4979;51.014;6.678;2022-07-23T08:45:46;23.10;99.90
9881;DHT22;4979;51.014;6.678;2022-07-23T08:48:15;23.30;99.90
9881;DHT22;4979;51.014;6.678;2022-07-23T08:50:45;23.30;99.90
9881;DHT22;4979;51.014;6.678;2022-07-23T08:53:11;23.20;99.90
9881;DHT22;4979;51.014;6.678;2022-07-23T08:55:38;23.20;99.90
9881;DHT22;4979;51.014;6.678;2022-07-23T08:58:04;23.40;99.90
9881;DHT22;4979;51.014;6.678;2022-07-23T09:00:29;23.20;99.90
9881;DHT22;4979;51.014;6.678;2022-07-23T09:02:55;23.40;99.90
9881;DHT22;4979;51.014;6.678;2022-07-23T09:05:21;23.70;99.90
9881;DHT22;4979;51.014;6.678;2022-07-23T09:08:06;23.40;99.90
9881;DHT22;4979;51.014;6.678;2022-07-23T09:10:52;23.60;99.90
9881;DHT22;4979;51.014;6.678;2022-07-23T09:16:09;23.70;99.90
9881;DHT22;4979;51.014;6.678;2022-07-23T09:18:37;23.80;99.90
9881;DHT22;4979;51.014;6.678;2022-07-23T09:21:08;23.90;99.90
9881;DHT22;4979;51.014;6.678;2022-07-23T09:24:01;23.80;99.90
9881;DHT22;4979;51.014;6.678;2022-07-23T09:29:13;23.80;99.90
9881;DHT22;4979;51.014;6.678;2022-07-23T09:34:13;24.30;99.90
9881;DHT22;4979;51.014;6.678;2022-07-23T09:36:40;24.30;99.90
9881;DHT22;4979;51.014;6.678;2022-07-23T09:39:07;24.30;99.90
9881;DHT22;4979;51.014;6.678;2022-07-23T09:41:42;24.30;99.90
9881;DHT22;4979;51.014;6.678;2022-07-23T09:44:18;24.50;99.90
9881;DHT22;4979;51.014;6.678;2022-07-23T09:46:48;24.50;99.90
9881;DHT22;4979;51.014;6.678;2022-07-23T09:49:18;24.70;99.90
9881;DHT22;4979;51.014;6.678;2022-07-23T09:51:53;24.70;99.90
9881;DHT22;4979;51.014;6.678;2022-07-23T09:54:25;24.70;99.90
9881;DHT22;4979;51.014;6.678;2022-07-23T09:56:53;24.50;99.90
9881;DHT22;4979;51.014;6.678;2022-07-23T09:59:24;24.70;99.90
9881;DHT22;4979;51.014;6.678;2022-07-23T10:01:52;24.90;99.90
9881;DHT22;4979;51.014;6.678;2022-07-23T10:04:19;24.70;99.90
9881;DHT22;4979;51.014;6.678;2022-07-23T10:06:46;24.80;99.90
9881;DHT22;4979;51.014;6.678;2022-07-23T10:09:13;24.80;99.90
9881;DHT22;4979;51.014;6.678;2022-07-23T10:11:41;25.10;99.90
9881;DHT22;4979;51.014;6.678;2022-07-23T10:14:08;25.30;99.90
9881;DHT22;4979;51.014;6.678;2022-07-23T10:16:33;25.10;99.90
9881;DHT22;4979;51.014;6.678;2022-07-23T10:18:59;25.10;99.90
9881;DHT22;4979;51.014;6.678;2022-07-23T10:21:47;25.10;99.90
9881;DHT22;4979;51.014;6.678;2022-07-23T10:24:41;25.20;99.90
9881;DHT22;4979;51.014;6.678;2022-07-23T10:30:12;25.70;99.90
9881;DHT22;4979;51.014;6.678;2022-07-23T10:33:12;25.80;99.90
9881;DHT22;4979;51.014;6.678;2022-07-23T10:36:02;25.40;99.90
9881;DHT22;4979;51.014;6.678;2022-07-23T10:41:11;25.50;99.90
9881;DHT22;4979;51.014;6.678;2022-07-23T10:43:37;25.60;99.90
9881;DHT22;4979;51.014;6.678;2022-07-23T10:46:22;25.70;99.90
9881;DHT22;4979;51.014;6.678;2022-07-23T10:49:26;25.20;99.90
9881;DHT22;4979;51.014;6.678;2022-07-23T10:57:08;25.80;99.90
9881;DHT22;4979;51.014;6.678;2022-07-23T11:02:39;26.10;99.90
9881;DHT22;4979;51.014;6.678;2022-07-23T11:05:07;26.10;99.90
9881;DHT22;4979;51.014;6.678;2022-07-23T11:07:34;26.10;99.90
9881;DHT22;4979;51.014;6.678;2022-07-23T11:10:00;26.30;99.90
9881;DHT22;4979;51.014;6.678;2022-07-23T11:15:11;26.40;99.90
9881;DHT22;4979;51.014;6.678;2022-07-23T11:22:54;26.50;99.90
9881;DHT22;4979;51.014;6.678;2022-07-23T11:28:07;26.70;99.90
9881;DHT22;4979;51.014;6.678;2022-07-23T11:35:35;26.90;99.90
9881;DHT22;4979;51.014;6.678;2022-07-23T11:38:19;26.50;99.90
9881;DHT22;4979;51.014;6.678;2022-07-23T11:40:55;26.50;99.90
9881;DHT22;4979;51.014;6.678;2022-07-23T11:43:24;26.70;99.90
9881;DHT22;4979;51.014;6.678;2022-07-23T11:45:53;26.90;99.90
9881;DHT22;4979;51.014;6.678;2022-07-23T11:48:24;26.90;99.90
9881;DHT22;4979;51.014;6.678;2022-07-23T11:50:52;26.90;99.90
9881;DHT22;4979;51.014;6.678;2022-07-23T11:53:22;27.00;99.90
9881;DHT22;4979;51.014;6.678;2022-07-23T11:55:48;27.20;99.90
9881;DHT22;4979;51.014;6.678;2022-07-23T11:58:14;27.10;99.90
9881;DHT22;4979;51.014;6.678;2022-07-23T12:00:40;27.40;99.90
9881;DHT22;4979;51.014;6.678;2022-07-23T12:03:07;27.40;99.90
9881;DHT22;4979;51.014;6.678;2022-07-23T12:05:35;27.20;99.90
9881;DHT22;4979;51.014;6.678;2022-07-23T12:08:04;27.20;99.90
9881;DHT22;4979;51.014;6.678;2022-07-23T12:10:40;27.20;99.90
9881;DHT22;4979;51.014;6.678;2022-07-23T12:13:12;27.40;99.90
9881;DHT22;4979;51.014;6.678;2022-07-23T12:15:49;27.40;99.90
9881;DHT22;4979;51.014;6.678;2022-07-23T12:18:17;27.10;99.90
9881;DHT22;4979;51.014;6.678;2022-07-23T12:20:47;27.30;99.90
9881;DHT22;4979;51.014;6.678;2022-07-23T12:23:14;27.30;99.90
9881;DHT22;4979;51.014;6.678;2022-07-23T12:25:44;27.30;99.90
9881;DHT22;4979;51.014;6.678;2022-07-23T12:28:21;27.60;99.90
9881;DHT22;4979;51.014;6.678;2022-07-23T12:30:55;27.90;99.90
9881;DHT22;4979;51.014;6.678;2022-07-23T12:33:36;27.80;99.90
9881;DHT22;4979;51.014;6.678;2022-07-23T12:36:06;27.70;99.90
9881;DHT22;4979;51.014;6.678;2022-07-23T12:38:41;28.00;99.90
9881;DHT22;4979;51.014;6.678;2022-07-23T12:41:07;28.00;99.90
9881;DHT22;4979;51.014;6.678;2022-07-23T12:43:38;28.00;99.90
9881;DHT22;4979;51.014;6.678;2022-07-23T12:46:06;28.20;99.90
9881;DHT22;4979;51.014;6.678;2022-07-23T12:48:34;28.30;99.90
9881;DHT22;4979;51.014;6.678;2022-07-23T12:53:42;28.50;99.90
9881;DHT22;4979;51.014;6.678;2022-07-23T12:58:45;28.30;99.90
9881;DHT22;4979;51.014;6.678;2022-07-23T13:04:10;28.50;99.90
9881;DHT22;4979;51.014;6.678;2022-07-23T13:06:48;28.40;99.90
9881;DHT22;4979;51.014;6.678;2022-07-23T13:09:17;28.70;99.90
9881;DHT22;4979;51.014;6.678;2022-07-23T13:11:44;28.60;99.90
9881;DHT22;4979;51.014;6.678;2022-07-23T13:14:11;28.70;99.90
9881;DHT22;4979;51.014;6.678;2022-07-23T13:16:37;28.70;99.90
9881;DHT22;4979;51.014;6.678;2022-07-23T13:19:03;28.70;99.90
9881;DHT22;4979;51.014;6.678;2022-07-23T13:21:29;28.20;99.90
9881;DHT22;4979;51.014;6.678;2022-07-23T13:23:56;28.40;99.90
9881;DHT22;4979;51.014;6.678;2022-07-23T13:26:22;28.60;99.90
9881;DHT22;4979;51.014;6.678;2022-07-23T13:28:47;28.30;99.90
9881;DHT22;4979;51.014;6.678;2022-07-23T13:31:13;28.00;99.90
9881;DHT22;4979;51.014;6.678;2022-07-23T13:33:39;28.10;99.90
9881;DHT22;4979;51.014;6.678;2022-07-23T13:36:06;28.50;99.90
9881;DHT22;4979;51.014;6.678;2022-07-23T13:38:31;28.50;99.90
9881;DHT22;4979;51.014;6.678;2022-07-23T13:40:58;28.30;99.90
9881;DHT22;4979;51.014;6.678;2022-07-23T13:43:25;28.20;99.90
9881;DHT22;4979;51.014;6.678;2022-07-23T13:45:51;28.30;99.90
9881;DHT22;4979;51.014;6.678;2022-07-23T13:48:18;28.50;99.90
9881;DHT22;4979;51.014;6.678;2022-07-23T13:50:45;28.80;99.90
9881;DHT22;4979;51.014;6.678;2022-07-23T13:53:16;29.00;99.90
9881;DHT22;4979;51.014;6.678;2022-07-23T13:55:43;28.80;99.90
9881;DHT22;4979;51.014;6.678;2022-07-23T13:58:09;28.60;99.90
9881;DHT22;4979;51.014;6.678;2022-07-23T14:00:41;28.70;99.90
9881;DHT22;4979;51.014;6.678;2022-07-23T14:03:08;28.80;99.90
9881;DHT22;4979;51.014;6.678;2022-07-23T14:05:34;28.90;99.90
9881;DHT22;4979;51.014;6.678;2022-07-23T14:08:00;28.80;99.90
9881;DHT22;4979;51.014;6.678;2022-07-23T14:10:26;28.70;99.90
9881;DHT22;4979;51.014;6.678;2022-07-23T14:12:53;28.60;99.90
9881;DHT22;4979;51.014;6.678;2022-07-23T14:15:22;28.50;99.90
9881;DHT22;4979;51.014;6.678;2022-07-23T14:17:48;28.60;99.90
9881;DHT22;4979;51.014;6.678;2022-07-23T14:20:14;28.40;99.90
9881;DHT22;4979;51.014;6.678;2022-07-23T14:22:40;28.10;99.90
9881;DHT22;4979;51.014;6.678;2022-07-23T14:25:07;28.10;99.90
9881;DHT22;4979;51.014;6.678;2022-07-23T14:27:33;28.00;99.90
9881;DHT22;4979;51.014;6.678;2022-07-23T14:29:59;27.50;99.90
9881;DHT22;4979;51.014;6.678;2022-07-23T14:32:25;27.60;99.90
9881;DHT22;4979;51.014;6.678;2022-07-23T14:34:51;27.60;99.90
9881;DHT22;4979;51.014;6.678;2022-07-23T14:37:17;27.70;99.90
9881;DHT22;4979;51.014;6.678;2022-07-23T14:39:44;28.10;99.90
9881;DHT22;4979;51.014;6.678;2022-07-23T14:42:10;28.30;99.90
9881;DHT22;4979;51.014;6.678;2022-07-23T14:44:36;28.40;99.90
9881;DHT22;4979;51.014;6.678;2022-07-23T14:47:03;28.10;99.90
9881;DHT22;4979;51.014;6.678;2022-07-23T14:49:33;28.40;99.90
9881;DHT22;4979;51.014;6.678;2022-07-23T14:51:59;28.70;99.90
9881;DHT22;4979;51.014;6.678;2022-07-23T14:54:26;28.60;99.90
9881;DHT22;4979;51.014;6.678;2022-07-23T14:56:53;28.90;99.90
9881;DHT22;4979;51.014;6.678;2022-07-23T14:59:19;28.90;99.90
9881;DHT22;4979;51.014;6.678;2022-07-23T15:01:45;29.10;99.90
9881;DHT22;4979;51.014;6.678;2022-07-23T15:04:11;29.00;99.90
9881;DHT22;4979;51.014;6.678;2022-07-23T15:06:36;28.90;99.90
9881;DHT22;4979;51.014;6.678;2022-07-23T15:09:03;28.90;99.90
9881;DHT22;4979;51.014;6.678;2022-07-23T15:11:29;29.00;99.90
9881;DHT22;4979;51.014;6.678;2022-07-23T15:13:58;29.00;99.50
9881;DHT22;4979;51.014;6.678;2022-07-23T15:16:24;29.10;99.10
9881;DHT22;4979;51.014;6.678;2022-07-23T15:18:49;29.00;99.60
9881;DHT22;4979;51.014;6.678;2022-07-23T15:21:15;28.90;99.90
9881;DHT22;4979;51.014;6.678;2022-07-23T15:23:40;28.60;98.00
9881;DHT22;4979;51.014;6.678;2022-07-23T15:26:06;28.10;99.90
9881;DHT22;4979;51.014;6.678;2022-07-23T15:28:33;28.10;99.90
9881;DHT22;4979;51.014;6.678;2022-07-23T15:30:59;27.80;99.90
9881;DHT22;4979;51.014;6.678;2022-07-23T15:33:25;27.80;99.90
9881;DHT22;4979;51.014;6.678;2022-07-23T15:35:51;28.00;99.90
9881;DHT22;4979;51.014;6.678;2022-07-23T15:38:18;28.00;99.90
9881;DHT22;4979;51.014;6.678;2022-07-23T15:40:44;28.30;99.90
9881;DHT22;4979;51.014;6.678;2022-07-23T15:43:09;28.20;99.90
9881;DHT22;4979;51.014;6.678;2022-07-23T15:45:35;28.10;99.90
9881;DHT22;4979;51.014;6.678;2022-07-23T15:48:00;28.10;99.90
9881;DHT22;4979;51.014;6.678;2022-07-23T15:50:26;28.10;99.90
9881;DHT22;4979;51.014;6.678;2022-07-23T15:52:52;28.30;99.90
9881;DHT22;4979;51.014;6.678;2022-07-23T15:55:17;28.40;99.90
9881;DHT22;4979;51.014;6.678;2022-07-23T15:57:44;28.70;99.90
9881;DHT22;4979;51.014;6.678;2022-07-23T16:00:10;28.50;99.90
9881;DHT22;4979;51.014;6.678;2022-07-23T16:02:36;27.80;99.90
9881;DHT22;4979;51.014;6.678;2022-07-23T16:05:02;28.60;99.90
9881;DHT22;4979;51.014;6.678;2022-07-23T16:07:27;28.50;99.90
9881;DHT22;4979;51.014;6.678;2022-07-23T16:09:53;28.50;99.90
9881;DHT22;4979;51.014;6.678;2022-07-23T16:12:19;28.50;99.90
9881;DHT22;4979;51.014;6.678;2022-07-23T16:14:44;28.50;99.90
9881;DHT22;4979;51.014;6.678;2022-07-23T16:17:10;28.40;99.90
9881;DHT22;4979;51.014;6.678;2022-07-23T16:19:36;28.30;99.90
9881;DHT22;4979;51.014;6.678;2022-07-23T16:22:02;28.00;99.90
9881;DHT22;4979;51.014;6.678;2022-07-23T16:24:28;27.90;99.90
9881;DHT22;4979;51.014;6.678;2022-07-23T16:26:53;27.90;99.90
9881;DHT22;4979;51.014;6.678;2022-07-23T16:29:19;27.70;99.90
9881;DHT22;4979;51.014;6.678;2022-07-23T16:31:44;27.70;99.90
9881;DHT22;4979;51.014;6.678;2022-07-23T16:34:10;27.80;99.90
9881;DHT22;4979;51.014;6.678;2022-07-23T16:36:36;27.70;99.90
9881;DHT22;4979;51.014;6.678;2022-07-23T16:39:02;27.70;99.90
9881;DHT22;4979;51.014;6.678;2022-07-23T16:41:28;27.70;99.90
9881;DHT22;4979;51.014;6.678;2022-07-23T16:43:54;27.80;99.90
9881;DHT22;4979;51.014;6.678;2022-07-23T16:46:20;27.80;99.90